sensor_id;sensor_type;location;lat;lon;timestamp;P1;durP1;ratioP1;P2;durP2;ratioP2
38053;SDS011;23859;50.672;7.164;2023-06-10T00:01:47;10.40;;;7.78;;
38053;SDS011;23859;50.672;7.164;2023-06-10T00:04:14;10.35;;;7.22;;
38053;SDS011;23859;50.672;7.164;2023-06-10T00:06:42;9.57;;;7.18;;
38053;SDS011;23859;50.672;7.164;2023-06-10T00:09:08;10.00;;;6.82;;
38053;SDS011;23859;50.672;7.164;2023-06-10T00:11:39;13.23;;;7.53;;
38053;SDS011;23859;50.672;7.164;2023-06-10T00:14:05;9.35;;;7.30;;
38053;SDS011;23859;50.672;7.164;2023-06-10T00:16:32;8.38;;;6.53;;
38053;SDS011;23859;50.672;7.164;2023-06-10T00:18:59;9.80;;;7.18;;
38053;SDS011;23859;50.672;7.164;2023-06-10T00:21:32;11.40;;;7.97;;
38053;SDS011;23859;50.672;7.164;2023-06-10T00:24:05;7.93;;;6.80;;
38053;SDS011;23859;50.672;7.164;2023-06-10T00:26:39;9.93;;;7.85;;
38053;SDS011;23859;50.672;7.164;2023-06-10T00:29:05;8.43;;;6.70;;
38053;SDS011;23859;50.672;7.164;2023-06-10T00:31:36;9.13;;;7.38;;
38053;SDS011;23859;50.672;7.164;2023-06-10T00:34:02;10.15;;;7.07;;
38053;SDS011;23859;50.672;7.164;2023-06-10T00:36:28;10.02;;;7.30;;
38053;SDS011;23859;50.672;7.164;2023-06-10T00:38:55;10.35;;;7.55;;
38053;SDS011;23859;50.672;7.164;2023-06-10T00:41:22;11.80;;;7.40;;
38053;SDS011;23859;50.672;7.164;2023-06-10T00:43:48;10.05;;;7.75;;
38053;SDS011;23859;50.672;7.164;2023-06-10T00:46:14;11.15;;;7.60;;
38053;SDS011;23859;50.672;7.164;2023-06-10T00:48:41;9.88;;;7.28;;
38053;SDS011;23859;50.672;7.164;2023-06-10T00:51:08;11.73;;;7.35;;
38053;SDS011;23859;50.672;7.164;2023-06-10T00:53:36;9.63;;;7.97;;
38053;SDS011;23859;50.672;7.164;2023-06-10T00:56:04;10.82;;;7.78;;
38053;SDS011;23859;50.672;7.164;2023-06-10T00:58:31;8.75;;;7.32;;
38053;SDS011;23859;50.672;7.164;2023-06-10T01:00:57;9.85;;;7.72;;
38053;SDS011;23859;50.672;7.164;2023-06-10T01:03:23;12.38;;;8.45;;
38053;SDS011;23859;50.672;7.164;2023-06-10T01:05:51;8.15;;;6.80;;
38053;SDS011;23859;50.672;7.164;2023-06-10T01:11:00;10.27;;;7.85;;
38053;SDS011;23859;50.672;7.164;2023-06-10T01:13:30;13.68;;;8.30;;
38053;SDS011;23859;50.672;7.164;2023-06-10T01:15:58;11.85;;;7.47;;
38053;SDS011;23859;50.672;7.164;2023-06-10T01:18:29;10.43;;;7.75;;
38053;SDS011;23859;50.672;7.164;2023-06-10T01:20:56;11.40;;;7.88;;
38053;SDS011;23859;50.672;7.164;2023-06-10T01:23:22;10.32;;;8.30;;
38053;SDS011;23859;50.672;7.164;2023-06-10T01:25:53;10.20;;;8.25;;
38053;SDS011;23859;50.672;7.164;2023-06-10T01:31:06;10.10;;;8.48;;
38053;SDS011;23859;50.672;7.164;2023-06-10T01:33:50;12.95;;;8.43;;
38053;SDS011;23859;50.672;7.164;2023-06-10T01:36:18;12.27;;;8.60;;
38053;SDS011;23859;50.672;7.164;2023-06-10T01:38:47;9.55;;;8.27;;
38053;SDS011;23859;50.672;7.164;2023-06-10T01:41:16;13.05;;;8.30;;
38053;SDS011;23859;50.672;7.164;2023-06-10T01:43:44;9.82;;;7.90;;
38053;SDS011;23859;50.672;7.164;2023-06-10T01:46:11;10.55;;;8.23;;
38053;SDS011;23859;50.672;7.164;2023-06-10T01:48:37;12.40;;;9.18;;
38053;SDS011;23859;50.672;7.164;2023-06-10T01:51:04;10.93;;;9.02;;
38053;SDS011;23859;50.672;7.164;2023-06-10T01:53:30;13.60;;;8.90;;
38053;SDS011;23859;50.672;7.164;2023-06-10T01:55:56;13.18;;;8.60;;
38053;SDS011;23859;50.672;7.164;2023-06-10T01:58:22;11.48;;;8.40;;
38053;SDS011;23859;50.672;7.164;2023-06-10T02:00:48;12.57;;;9.50;;
38053;SDS011;23859;50.672;7.164;2023-06-10T02:03:14;11.60;;;8.18;;
38053;SDS011;23859;50.672;7.164;2023-06-10T02:05:40;13.52;;;8.73;;
38053;SDS011;23859;50.672;7.164;2023-06-10T02:08:06;12.10;;;8.38;;
38053;SDS011;23859;50.672;7.164;2023-06-10T02:10:32;10.18;;;8.45;;
38053;SDS011;23859;50.672;7.164;2023-06-10T02:12:59;12.27;;;8.80;;
38053;SDS011;23859;50.672;7.164;2023-06-10T02:15:25;12.10;;;9.35;;
38053;SDS011;23859;50.672;7.164;2023-06-10T02:17:51;10.65;;;8.57;;
38053;SDS011;23859;50.672;7.164;2023-06-10T02:20:17;11.88;;;9.40;;
38053;SDS011;23859;50.672;7.164;2023-06-10T02:22:44;11.10;;;9.32;;
38053;SDS011;23859;50.672;7.164;2023-06-10T02:25:10;12.43;;;9.20;;
38053;SDS011;23859;50.672;7.164;2023-06-10T02:27:36;12.90;;;9.48;;
38053;SDS011;23859;50.672;7.164;2023-06-10T02:30:02;11.70;;;9.07;;
38053;SDS011;23859;50.672;7.164;2023-06-10T02:32:28;10.15;;;8.02;;
38053;SDS011;23859;50.672;7.164;2023-06-10T02:34:54;9.80;;;8.80;;
38053;SDS011;23859;50.672;7.164;2023-06-10T02:37:20;11.68;;;9.70;;
38053;SDS011;23859;50.672;7.164;2023-06-10T02:39:46;11.77;;;9.05;;
38053;SDS011;23859;50.672;7.164;2023-06-10T02:42:12;15.25;;;8.70;;
38053;SDS011;23859;50.672;7.164;2023-06-10T02:44:38;13.88;;;9.43;;
38053;SDS011;23859;50.672;7.164;2023-06-10T02:47:04;13.20;;;9.82;;
38053;SDS011;23859;50.672;7.164;2023-06-10T02:49:31;12.77;;;9.38;;
38053;SDS011;23859;50.672;7.164;2023-06-10T02:51:57;12.25;;;9.60;;
38053;SDS011;23859;50.672;7.164;2023-06-10T02:54:24;13.35;;;9.68;;
38053;SDS011;23859;50.672;7.164;2023-06-10T02:56:50;9.50;;;8.30;;
38053;SDS011;23859;50.672;7.164;2023-06-10T02:59:17;14.40;;;9.65;;
38053;SDS011;23859;50.672;7.164;2023-06-10T03:01:44;12.73;;;9.43;;
38053;SDS011;23859;50.672;7.164;2023-06-10T03:04:10;13.25;;;9.15;;
38053;SDS011;23859;50.672;7.164;2023-06-10T03:06:38;13.32;;;9.13;;
38053;SDS011;23859;50.672;7.164;2023-06-10T03:09:08;11.20;;;9.68;;
38053;SDS011;23859;50.672;7.164;2023-06-10T03:11:35;10.98;;;9.35;;
38053;SDS011;23859;50.672;7.164;2023-06-10T03:14:01;12.20;;;9.02;;
38053;SDS011;23859;50.672;7.164;2023-06-10T03:16:27;11.23;;;9.45;;
38053;SDS011;23859;50.672;7.164;2023-06-10T03:18:55;13.27;;;9.77;;
38053;SDS011;23859;50.672;7.164;2023-06-10T03:21:21;12.48;;;9.55;;
38053;SDS011;23859;50.672;7.164;2023-06-10T03:23:47;12.75;;;10.15;;
38053;SDS011;23859;50.672;7.164;2023-06-10T03:26:13;13.15;;;9.93;;
38053;SDS011;23859;50.672;7.164;2023-06-10T03:28:40;14.88;;;10.60;;
38053;SDS011;23859;50.672;7.164;2023-06-10T03:31:06;13.52;;;10.07;;
38053;SDS011;23859;50.672;7.164;2023-06-10T03:33:33;13.80;;;9.48;;
38053;SDS011;23859;50.672;7.164;2023-06-10T03:35:59;11.70;;;9.52;;
38053;SDS011;23859;50.672;7.164;2023-06-10T03:38:25;13.68;;;10.65;;
38053;SDS011;23859;50.672;7.164;2023-06-10T03:40:51;16.02;;;10.60;;
38053;SDS011;23859;50.672;7.164;2023-06-10T03:43:17;13.38;;;10.45;;
38053;SDS011;23859;50.672;7.164;2023-06-10T03:45:43;13.38;;;10.02;;
38053;SDS011;23859;50.672;7.164;2023-06-10T03:48:10;15.27;;;11.00;;
38053;SDS011;23859;50.672;7.164;2023-06-10T03:50:36;12.45;;;10.27;;
38053;SDS011;23859;50.672;7.164;2023-06-10T03:53:02;12.18;;;9.85;;
38053;SDS011;23859;50.672;7.164;2023-06-10T03:55:28;13.18;;;10.57;;
38053;SDS011;23859;50.672;7.164;2023-06-10T03:57:54;15.73;;;10.88;;
38053;SDS011;23859;50.672;7.164;2023-06-10T04:00:20;15.13;;;10.93;;
38053;SDS011;23859;50.672;7.164;2023-06-10T04:02:47;12.48;;;9.85;;
38053;SDS011;23859;50.672;7.164;2023-06-10T04:05:17;16.55;;;11.13;;
38053;SDS011;23859;50.672;7.164;2023-06-10T04:07:44;13.77;;;9.93;;
38053;SDS011;23859;50.672;7.164;2023-06-10T04:10:11;14.80;;;10.80;;
38053;SDS011;23859;50.672;7.164;2023-06-10T04:12:37;15.68;;;10.82;;
38053;SDS011;23859;50.672;7.164;2023-06-10T04:15:03;14.73;;;10.50;;
38053;SDS011;23859;50.672;7.164;2023-06-10T04:17:30;17.80;;;11.82;;
38053;SDS011;23859;50.672;7.164;2023-06-10T04:19:56;18.05;;;11.15;;
38053;SDS011;23859;50.672;7.164;2023-06-10T04:22:24;14.45;;;10.68;;
38053;SDS011;23859;50.672;7.164;2023-06-10T04:24:50;14.77;;;11.85;;
38053;SDS011;23859;50.672;7.164;2023-06-10T04:27:17;13.55;;;11.05;;
38053;SDS011;23859;50.672;7.164;2023-06-10T04:29:43;16.27;;;11.77;;
38053;SDS011;23859;50.672;7.164;2023-06-10T04:32:09;16.25;;;11.05;;
38053;SDS011;23859;50.672;7.164;2023-06-10T04:34:35;17.92;;;12.00;;
38053;SDS011;23859;50.672;7.164;2023-06-10T04:37:04;16.02;;;10.98;;
38053;SDS011;23859;50.672;7.164;2023-06-10T04:39:30;16.80;;;11.18;;
38053;SDS011;23859;50.672;7.164;2023-06-10T04:41:57;14.25;;;10.93;;
38053;SDS011;23859;50.672;7.164;2023-06-10T04:44:23;15.00;;;10.70;;
38053;SDS011;23859;50.672;7.164;2023-06-10T04:46:49;17.65;;;11.32;;
38053;SDS011;23859;50.672;7.164;2023-06-10T04:49:15;17.35;;;10.57;;
38053;SDS011;23859;50.672;7.164;2023-06-10T04:51:41;16.23;;;11.82;;
38053;SDS011;23859;50.672;7.164;2023-06-10T04:54:07;13.13;;;11.07;;
38053;SDS011;23859;50.672;7.164;2023-06-10T04:56:33;17.25;;;11.38;;
38053;SDS011;23859;50.672;7.164;2023-06-10T04:58:59;15.55;;;11.23;;
38053;SDS011;23859;50.672;7.164;2023-06-10T05:01:25;16.05;;;11.00;;
38053;SDS011;23859;50.672;7.164;2023-06-10T05:03:52;14.52;;;10.18;;
38053;SDS011;23859;50.672;7.164;2023-06-10T05:06:18;14.68;;;9.55;;
38053;SDS011;23859;50.672;7.164;2023-06-10T05:08:44;15.27;;;10.00;;
38053;SDS011;23859;50.672;7.164;2023-06-10T05:11:10;11.95;;;9.93;;
38053;SDS011;23859;50.672;7.164;2023-06-10T05:13:37;15.20;;;11.05;;
38053;SDS011;23859;50.672;7.164;2023-06-10T05:16:05;15.25;;;10.30;;
38053;SDS011;23859;50.672;7.164;2023-06-10T05:18:32;12.40;;;9.82;;
38053;SDS011;23859;50.672;7.164;2023-06-10T05:20:58;13.27;;;9.38;;
38053;SDS011;23859;50.672;7.164;2023-06-10T05:23:24;13.73;;;9.98;;
38053;SDS011;23859;50.672;7.164;2023-06-10T05:25:50;14.07;;;9.40;;
38053;SDS011;23859;50.672;7.164;2023-06-10T05:28:16;12.85;;;9.90;;
38053;SDS011;23859;50.672;7.164;2023-06-10T05:30:43;14.70;;;10.45;;
38053;SDS011;23859;50.672;7.164;2023-06-10T05:33:09;15.40;;;10.18;;
38053;SDS011;23859;50.672;7.164;2023-06-10T05:35:35;10.95;;;9.35;;
38053;SDS011;23859;50.672;7.164;2023-06-10T05:38:02;13.15;;;9.60;;
38053;SDS011;23859;50.672;7.164;2023-06-10T05:40:28;11.95;;;9.77;;
38053;SDS011;23859;50.672;7.164;2023-06-10T05:42:54;13.18;;;9.00;;
38053;SDS011;23859;50.672;7.164;2023-06-10T05:45:20;11.05;;;8.77;;
38053;SDS011;23859;50.672;7.164;2023-06-10T05:47:46;12.30;;;9.20;;
38053;SDS011;23859;50.672;7.164;2023-06-10T05:50:12;12.43;;;9.15;;
38053;SDS011;23859;50.672;7.164;2023-06-10T05:52:38;14.52;;;8.93;;
38053;SDS011;23859;50.672;7.164;2023-06-10T05:55:07;10.88;;;8.23;;
38053;SDS011;23859;50.672;7.164;2023-06-10T05:57:34;11.20;;;8.57;;
38053;SDS011;23859;50.672;7.164;2023-06-10T06:00:00;13.73;;;8.60;;
38053;SDS011;23859;50.672;7.164;2023-06-10T06:02:26;10.57;;;9.13;;
38053;SDS011;23859;50.672;7.164;2023-06-10T06:04:52;11.65;;;9.18;;
38053;SDS011;23859;50.672;7.164;2023-06-10T06:07:18;13.32;;;8.77;;
38053;SDS011;23859;50.672;7.164;2023-06-10T06:09:45;14.70;;;9.18;;
38053;SDS011;23859;50.672;7.164;2023-06-10T06:12:12;11.63;;;8.85;;
38053;SDS011;23859;50.672;7.164;2023-06-10T06:14:38;10.70;;;8.18;;
38053;SDS011;23859;50.672;7.164;2023-06-10T06:17:05;10.48;;;8.30;;
38053;SDS011;23859;50.672;7.164;2023-06-10T06:19:31;11.48;;;7.95;;
38053;SDS011;23859;50.672;7.164;2023-06-10T06:21:58;11.60;;;8.23;;
38053;SDS011;23859;50.672;7.164;2023-06-10T06:24:24;9.52;;;7.55;;
38053;SDS011;23859;50.672;7.164;2023-06-10T06:26:50;11.57;;;8.45;;
38053;SDS011;23859;50.672;7.164;2023-06-10T06:29:16;10.00;;;7.50;;
38053;SDS011;23859;50.672;7.164;2023-06-10T06:31:43;10.05;;;7.82;;
38053;SDS011;23859;50.672;7.164;2023-06-10T06:34:09;10.18;;;7.93;;
38053;SDS011;23859;50.672;7.164;2023-06-10T06:36:35;9.10;;;8.00;;
38053;SDS011;23859;50.672;7.164;2023-06-10T06:39:01;9.93;;;7.88;;
38053;SDS011;23859;50.672;7.164;2023-06-10T06:41:27;10.68;;;7.78;;
38053;SDS011;23859;50.672;7.164;2023-06-10T06:43:54;8.18;;;7.28;;
38053;SDS011;23859;50.672;7.164;2023-06-10T06:46:20;9.73;;;7.65;;
38053;SDS011;23859;50.672;7.164;2023-06-10T06:48:47;11.98;;;7.97;;
38053;SDS011;23859;50.672;7.164;2023-06-10T06:51:13;13.35;;;7.90;;
38053;SDS011;23859;50.672;7.164;2023-06-10T06:53:39;10.15;;;7.75;;
38053;SDS011;23859;50.672;7.164;2023-06-10T06:56:12;11.10;;;7.28;;
38053;SDS011;23859;50.672;7.164;2023-06-10T06:58:38;8.60;;;6.90;;
38053;SDS011;23859;50.672;7.164;2023-06-10T07:01:04;12.07;;;7.68;;
38053;SDS011;23859;50.672;7.164;2023-06-10T07:03:30;11.77;;;7.20;;
38053;SDS011;23859;50.672;7.164;2023-06-10T07:05:57;10.82;;;6.78;;
38053;SDS011;23859;50.672;7.164;2023-06-10T07:08:23;9.52;;;6.90;;
38053;SDS011;23859;50.672;7.164;2023-06-10T07:10:49;8.07;;;6.10;;
38053;SDS011;23859;50.672;7.164;2023-06-10T07:13:15;12.90;;;6.70;;
38053;SDS011;23859;50.672;7.164;2023-06-10T07:15:41;10.95;;;6.22;;
38053;SDS011;23859;50.672;7.164;2023-06-10T07:18:07;8.38;;;6.00;;
38053;SDS011;23859;50.672;7.164;2023-06-10T07:20:33;7.75;;;6.18;;
38053;SDS011;23859;50.672;7.164;2023-06-10T07:22:59;7.78;;;6.05;;
38053;SDS011;23859;50.672;7.164;2023-06-10T07:25:25;9.18;;;5.97;;
38053;SDS011;23859;50.672;7.164;2023-06-10T07:27:51;8.27;;;5.55;;
38053;SDS011;23859;50.672;7.164;2023-06-10T07:30:17;8.05;;;5.35;;
38053;SDS011;23859;50.672;7.164;2023-06-10T07:32:43;7.57;;;5.40;;
38053;SDS011;23859;50.672;7.164;2023-06-10T07:35:10;9.57;;;5.70;;
38053;SDS011;23859;50.672;7.164;2023-06-10T07:37:36;7.53;;;5.20;;
38053;SDS011;23859;50.672;7.164;2023-06-10T07:40:02;7.88;;;4.90;;
38053;SDS011;23859;50.672;7.164;2023-06-10T07:42:29;10.75;;;5.38;;
38053;SDS011;23859;50.672;7.164;2023-06-10T07:44:56;17.40;;;5.95;;
38053;SDS011;23859;50.672;7.164;2023-06-10T07:47:22;6.43;;;5.32;;
38053;SDS011;23859;50.672;7.164;2023-06-10T07:49:48;5.85;;;5.25;;
38053;SDS011;23859;50.672;7.164;2023-06-10T07:52:14;8.48;;;4.75;;
38053;SDS011;23859;50.672;7.164;2023-06-10T07:54:40;6.50;;;4.78;;
38053;SDS011;23859;50.672;7.164;2023-06-10T07:57:06;6.72;;;5.57;;
38053;SDS011;23859;50.672;7.164;2023-06-10T07:59:33;8.85;;;5.35;;
38053;SDS011;23859;50.672;7.164;2023-06-10T08:01:59;7.68;;;4.90;;
38053;SDS011;23859;50.672;7.164;2023-06-10T08:04:25;5.68;;;4.90;;
38053;SDS011;23859;50.672;7.164;2023-06-10T08:06:51;7.50;;;4.65;;
38053;SDS011;23859;50.672;7.164;2023-06-10T08:09:17;5.38;;;4.88;;
38053;SDS011;23859;50.672;7.164;2023-06-10T08:11:44;5.93;;;5.32;;
38053;SDS011;23859;50.672;7.164;2023-06-10T08:14:11;6.18;;;5.57;;
38053;SDS011;23859;50.672;7.164;2023-06-10T08:16:37;8.35;;;7.15;;
38053;SDS011;23859;50.672;7.164;2023-06-10T08:19:03;6.55;;;5.60;;
38053;SDS011;23859;50.672;7.164;2023-06-10T08:21:29;9.50;;;5.43;;
38053;SDS011;23859;50.672;7.164;2023-06-10T08:23:56;6.80;;;5.68;;
38053;SDS011;23859;50.672;7.164;2023-06-10T08:26:23;9.52;;;5.57;;
38053;SDS011;23859;50.672;7.164;2023-06-10T08:28:49;7.43;;;5.97;;
38053;SDS011;23859;50.672;7.164;2023-06-10T08:31:15;8.15;;;6.10;;
38053;SDS011;23859;50.672;7.164;2023-06-10T08:33:42;11.02;;;6.95;;
38053;SDS011;23859;50.672;7.164;2023-06-10T08:36:08;10.13;;;6.32;;
38053;SDS011;23859;50.672;7.164;2023-06-10T08:38:34;16.55;;;7.07;;
38053;SDS011;23859;50.672;7.164;2023-06-10T08:41:00;9.40;;;6.40;;
38053;SDS011;23859;50.672;7.164;2023-06-10T08:45:59;10.77;;;6.55;;
38053;SDS011;23859;50.672;7.164;2023-06-10T08:48:28;9.88;;;7.28;;
38053;SDS011;23859;50.672;7.164;2023-06-10T08:50:56;9.13;;;7.18;;
38053;SDS011;23859;50.672;7.164;2023-06-10T08:53:23;9.82;;;7.28;;
38053;SDS011;23859;50.672;7.164;2023-06-10T08:55:51;9.40;;;6.47;;
38053;SDS011;23859;50.672;7.164;2023-06-10T08:58:17;8.98;;;7.05;;
38053;SDS011;23859;50.672;7.164;2023-06-10T09:00:45;10.57;;;7.25;;
38053;SDS011;23859;50.672;7.164;2023-06-10T09:03:11;8.95;;;6.85;;
38053;SDS011;23859;50.672;7.164;2023-06-10T09:05:37;8.43;;;6.25;;
38053;SDS011;23859;50.672;7.164;2023-06-10T09:08:05;7.22;;;5.93;;
38053;SDS011;23859;50.672;7.164;2023-06-10T09:10:33;7.35;;;6.25;;
38053;SDS011;23859;50.672;7.164;2023-06-10T09:12:59;7.95;;;6.00;;
38053;SDS011;23859;50.672;7.164;2023-06-10T09:15:25;10.60;;;7.57;;
38053;SDS011;23859;50.672;7.164;2023-06-10T09:17:52;9.77;;;7.00;;
38053;SDS011;23859;50.672;7.164;2023-06-10T09:20:18;13.98;;;9.07;;
38053;SDS011;23859;50.672;7.164;2023-06-10T09:22:44;7.85;;;6.57;;
38053;SDS011;23859;50.672;7.164;2023-06-10T09:25:11;10.00;;;6.57;;
38053;SDS011;23859;50.672;7.164;2023-06-10T09:27:45;6.72;;;6.03;;
38053;SDS011;23859;50.672;7.164;2023-06-10T09:30:34;6.78;;;6.05;;
38053;SDS011;23859;50.672;7.164;2023-06-10T09:33:01;9.30;;;5.90;;
38053;SDS011;23859;50.672;7.164;2023-06-10T09:35:34;8.85;;;6.05;;
38053;SDS011;23859;50.672;7.164;2023-06-10T09:38:00;7.35;;;6.00;;
38053;SDS011;23859;50.672;7.164;2023-06-10T09:40:27;9.02;;;6.28;;
38053;SDS011;23859;50.672;7.164;2023-06-10T09:42:55;6.72;;;5.90;;
38053;SDS011;23859;50.672;7.164;2023-06-10T09:45:23;8.40;;;6.22;;
38053;SDS011;23859;50.672;7.164;2023-06-10T09:47:52;8.18;;;6.07;;
38053;SDS011;23859;50.672;7.164;2023-06-10T09:50:19;6.70;;;5.82;;
38053;SDS011;23859;50.672;7.164;2023-06-10T09:52:46;11.15;;;6.75;;
38053;SDS011;23859;50.672;7.164;2023-06-10T09:55:15;8.32;;;6.53;;
38053;SDS011;23859;50.672;7.164;2023-06-10T09:57:41;8.45;;;6.40;;
38053;SDS011;23859;50.672;7.164;2023-06-10T10:00:12;7.22;;;6.20;;
38053;SDS011;23859;50.672;7.164;2023-06-10T10:05:13;7.53;;;6.05;;
38053;SDS011;23859;50.672;7.164;2023-06-10T10:07:41;7.80;;;6.72;;
38053;SDS011;23859;50.672;7.164;2023-06-10T10:10:08;9.20;;;7.45;;
38053;SDS011;23859;50.672;7.164;2023-06-10T10:12:35;8.15;;;5.93;;
38053;SDS011;23859;50.672;7.164;2023-06-10T10:15:09;7.47;;;6.47;;
38053;SDS011;23859;50.672;7.164;2023-06-10T10:17:49;6.82;;;6.07;;
38053;SDS011;23859;50.672;7.164;2023-06-10T10:20:31;9.90;;;6.00;;
38053;SDS011;23859;50.672;7.164;2023-06-10T10:22:59;9.90;;;6.05;;
38053;SDS011;23859;50.672;7.164;2023-06-10T10:25:30;9.63;;;6.28;;
38053;SDS011;23859;50.672;7.164;2023-06-10T10:28:17;11.20;;;6.10;;
38053;SDS011;23859;50.672;7.164;2023-06-10T10:30:47;7.82;;;6.28;;
38053;SDS011;23859;50.672;7.164;2023-06-10T10:33:16;9.65;;;6.13;;
38053;SDS011;23859;50.672;7.164;2023-06-10T10:35:48;6.55;;;5.88;;
38053;SDS011;23859;50.672;7.164;2023-06-10T10:38:14;6.78;;;5.28;;
38053;SDS011;23859;50.672;7.164;2023-06-10T10:40:41;6.22;;;4.82;;
38053;SDS011;23859;50.672;7.164;2023-06-10T10:43:09;7.55;;;6.18;;
38053;SDS011;23859;50.672;7.164;2023-06-10T10:45:35;7.78;;;5.38;;
38053;SDS011;23859;50.672;7.164;2023-06-10T10:48:04;5.82;;;5.07;;
38053;SDS011;23859;50.672;7.164;2023-06-10T10:50:35;6.75;;;5.50;;
38053;SDS011;23859;50.672;7.164;2023-06-10T10:53:01;8.40;;;5.10;;
38053;SDS011;23859;50.672;7.164;2023-06-10T10:55:29;7.20;;;5.47;;
38053;SDS011;23859;50.672;7.164;2023-06-10T11:00:28;7.18;;;5.65;;
38053;SDS011;23859;50.672;7.164;2023-06-10T11:02:57;8.07;;;5.20;;
38053;SDS011;23859;50.672;7.164;2023-06-10T11:08:06;6.70;;;5.28;;
38053;SDS011;23859;50.672;7.164;2023-06-10T11:10:37;8.35;;;5.82;;
38053;SDS011;23859;50.672;7.164;2023-06-10T11:13:06;8.93;;;5.35;;
38053;SDS011;23859;50.672;7.164;2023-06-10T11:31:19;7.10;;;5.43;;
38053;SDS011;23859;50.672;7.164;2023-06-10T11:33:46;6.70;;;4.78;;
38053;SDS011;23859;50.672;7.164;2023-06-10T11:36:16;6.88;;;4.57;;
38053;SDS011;23859;50.672;7.164;2023-06-10T11:38:43;7.38;;;4.75;;
38053;SDS011;23859;50.672;7.164;2023-06-10T11:41:10;7.13;;;4.65;;
38053;SDS011;23859;50.672;7.164;2023-06-10T11:43:40;9.80;;;4.50;;
38053;SDS011;23859;50.672;7.164;2023-06-10T11:46:09;6.18;;;4.55;;
38053;SDS011;23859;50.672;7.164;2023-06-10T11:48:36;4.72;;;4.22;;
38053;SDS011;23859;50.672;7.164;2023-06-10T11:51:08;6.72;;;4.03;;
38053;SDS011;23859;50.672;7.164;2023-06-10T11:53:34;6.63;;;4.33;;
38053;SDS011;23859;50.672;7.164;2023-06-10T11:56:00;5.00;;;3.65;;
38053;SDS011;23859;50.672;7.164;2023-06-10T11:58:26;4.90;;;3.83;;
38053;SDS011;23859;50.672;7.164;2023-06-10T12:00:53;5.65;;;3.78;;
38053;SDS011;23859;50.672;7.164;2023-06-10T12:03:23;5.18;;;3.92;;
38053;SDS011;23859;50.672;7.164;2023-06-10T12:05:57;4.97;;;4.07;;
38053;SDS011;23859;50.672;7.164;2023-06-10T12:08:25;6.63;;;4.90;;
38053;SDS011;23859;50.672;7.164;2023-06-10T12:10:52;5.88;;;3.80;;
38053;SDS011;23859;50.672;7.164;2023-06-10T12:13:18;9.73;;;4.10;;
38053;SDS011;23859;50.672;7.164;2023-06-10T12:15:45;9.50;;;4.70;;
38053;SDS011;23859;50.672;7.164;2023-06-10T12:18:18;5.95;;;4.10;;
38053;SDS011;23859;50.672;7.164;2023-06-10T12:20:45;6.45;;;4.43;;
38053;SDS011;23859;50.672;7.164;2023-06-10T12:23:12;4.85;;;4.22;;
38053;SDS011;23859;50.672;7.164;2023-06-10T12:25:39;5.90;;;4.10;;
38053;SDS011;23859;50.672;7.164;2023-06-10T12:28:14;5.47;;;4.07;;
38053;SDS011;23859;50.672;7.164;2023-06-10T12:30:41;5.93;;;4.57;;
38053;SDS011;23859;50.672;7.164;2023-06-10T12:33:15;8.57;;;4.45;;
38053;SDS011;23859;50.672;7.164;2023-06-10T12:35:48;5.60;;;3.92;;
38053;SDS011;23859;50.672;7.164;2023-06-10T12:38:20;5.45;;;4.18;;
38053;SDS011;23859;50.672;7.164;2023-06-10T12:40:49;7.07;;;4.22;;
38053;SDS011;23859;50.672;7.164;2023-06-10T12:43:24;6.57;;;4.25;;
38053;SDS011;23859;50.672;7.164;2023-06-10T12:45:51;9.10;;;5.00;;
38053;SDS011;23859;50.672;7.164;2023-06-10T12:48:20;8.82;;;4.75;;
38053;SDS011;23859;50.672;7.164;2023-06-10T12:50:57;7.72;;;6.20;;
38053;SDS011;23859;50.672;7.164;2023-06-10T12:53:25;6.75;;;4.82;;
38053;SDS011;23859;50.672;7.164;2023-06-10T12:55:51;5.60;;;4.35;;
38053;SDS011;23859;50.672;7.164;2023-06-10T12:58:19;6.95;;;4.72;;
38053;SDS011;23859;50.672;7.164;2023-06-10T13:00:47;6.40;;;3.95;;
38053;SDS011;23859;50.672;7.164;2023-06-10T13:03:14;9.02;;;4.25;;
38053;SDS011;23859;50.672;7.164;2023-06-10T13:05:40;7.32;;;4.50;;
38053;SDS011;23859;50.672;7.164;2023-06-10T13:08:07;5.55;;;4.57;;
38053;SDS011;23859;50.672;7.164;2023-06-10T13:10:35;14.00;;;10.55;;
38053;SDS011;23859;50.672;7.164;2023-06-10T13:13:01;8.98;;;4.78;;
38053;SDS011;23859;50.672;7.164;2023-06-10T13:15:31;9.35;;;4.40;;
38053;SDS011;23859;50.672;7.164;2023-06-10T13:18:01;7.32;;;4.20;;
38053;SDS011;23859;50.672;7.164;2023-06-10T13:20:30;11.93;;;6.90;;
38053;SDS011;23859;50.672;7.164;2023-06-10T13:22:56;8.10;;;5.35;;
38053;SDS011;23859;50.672;7.164;2023-06-10T13:25:22;8.10;;;4.38;;
38053;SDS011;23859;50.672;7.164;2023-06-10T13:27:49;4.35;;;3.92;;
38053;SDS011;23859;50.672;7.164;2023-06-10T13:30:15;5.63;;;4.35;;
38053;SDS011;23859;50.672;7.164;2023-06-10T13:32:41;5.20;;;4.45;;
38053;SDS011;23859;50.672;7.164;2023-06-10T13:35:07;6.72;;;4.63;;
38053;SDS011;23859;50.672;7.164;2023-06-10T13:37:33;7.22;;;3.95;;
38053;SDS011;23859;50.672;7.164;2023-06-10T13:40:00;6.10;;;4.22;;
38053;SDS011;23859;50.672;7.164;2023-06-10T13:42:27;5.88;;;4.30;;
38053;SDS011;23859;50.672;7.164;2023-06-10T13:44:54;4.82;;;4.40;;
38053;SDS011;23859;50.672;7.164;2023-06-10T13:47:21;7.63;;;4.30;;
38053;SDS011;23859;50.672;7.164;2023-06-10T13:49:47;5.57;;;3.58;;
38053;SDS011;23859;50.672;7.164;2023-06-10T13:52:13;5.35;;;4.07;;
38053;SDS011;23859;50.672;7.164;2023-06-10T13:54:39;7.95;;;4.43;;
38053;SDS011;23859;50.672;7.164;2023-06-10T13:57:05;4.82;;;4.10;;
38053;SDS011;23859;50.672;7.164;2023-06-10T13:59:34;6.10;;;3.97;;
38053;SDS011;23859;50.672;7.164;2023-06-10T14:02:00;5.90;;;3.67;;
38053;SDS011;23859;50.672;7.164;2023-06-10T14:04:27;4.65;;;3.85;;
38053;SDS011;23859;50.672;7.164;2023-06-10T14:06:53;5.70;;;4.20;;
38053;SDS011;23859;50.672;7.164;2023-06-10T14:09:19;8.82;;;4.93;;
38053;SDS011;23859;50.672;7.164;2023-06-10T14:11:45;7.28;;;4.07;;
38053;SDS011;23859;50.672;7.164;2023-06-10T14:14:12;6.40;;;4.25;;
38053;SDS011;23859;50.672;7.164;2023-06-10T14:16:39;5.78;;;4.13;;
38053;SDS011;23859;50.672;7.164;2023-06-10T14:19:06;5.53;;;4.10;;
38053;SDS011;23859;50.672;7.164;2023-06-10T14:21:32;5.25;;;3.78;;
38053;SDS011;23859;50.672;7.164;2023-06-10T14:23:58;7.07;;;3.97;;
38053;SDS011;23859;50.672;7.164;2023-06-10T14:26:24;7.68;;;4.70;;
38053;SDS011;23859;50.672;7.164;2023-06-10T14:28:51;7.63;;;3.90;;
38053;SDS011;23859;50.672;7.164;2023-06-10T14:31:17;5.18;;;3.90;;
38053;SDS011;23859;50.672;7.164;2023-06-10T14:33:43;7.70;;;4.60;;
38053;SDS011;23859;50.672;7.164;2023-06-10T14:36:09;6.22;;;3.95;;
38053;SDS011;23859;50.672;7.164;2023-06-10T14:38:36;6.60;;;4.88;;
38053;SDS011;23859;50.672;7.164;2023-06-10T14:41:03;7.63;;;4.10;;
38053;SDS011;23859;50.672;7.164;2023-06-10T14:43:29;5.53;;;4.05;;
38053;SDS011;23859;50.672;7.164;2023-06-10T14:45:55;5.55;;;4.05;;
38053;SDS011;23859;50.672;7.164;2023-06-10T14:48:22;6.45;;;4.07;;
38053;SDS011;23859;50.672;7.164;2023-06-10T14:50:48;8.23;;;4.15;;
38053;SDS011;23859;50.672;7.164;2023-06-10T14:53:17;5.47;;;4.07;;
38053;SDS011;23859;50.672;7.164;2023-06-10T14:55:43;4.80;;;4.10;;
38053;SDS011;23859;50.672;7.164;2023-06-10T14:58:09;4.95;;;3.67;;
38053;SDS011;23859;50.672;7.164;2023-06-10T15:00:35;78.25;;;16.60;;
38053;SDS011;23859;50.672;7.164;2023-06-10T15:03:01;7.35;;;4.80;;
38053;SDS011;23859;50.672;7.164;2023-06-10T15:05:28;6.80;;;4.18;;
38053;SDS011;23859;50.672;7.164;2023-06-10T15:07:54;5.45;;;3.92;;
38053;SDS011;23859;50.672;7.164;2023-06-10T15:10:20;4.90;;;4.18;;
38053;SDS011;23859;50.672;7.164;2023-06-10T15:12:47;8.27;;;4.40;;